Time;durP1;ratioP1;P1;durP2;ratioP2;P2;SDS_P1;SDS_P2;PMS_P1;PMS_P2;Temp;Humidity;BMP_temperature;BMP_pressure;BME280_temperature;BME280_humidity;BME280_pressure;Samples;Min_cycle;Max_cycle;Signal;HPM_P1;HPM_P2
2024/01/28 00:07:31;;;;;;;17.90;4.40;;;;;;;1.93;98.43;101812.81;1885872;76;35517;-43
2024/01/28 00:09:57;;;;;;;14.18;4.78;;;;;;;1.88;98.15;101809.16;1787333;80;25638;-43
2024/01/28 00:12:24;;;;;;;16.30;4.58;;;;;;;1.88;97.90;101811.30;1820043;78;27878;-44
2024/01/28 00:14:51;;;;;;;14.30;5.22;;;;;;;1.88;97.89;101815.83;1787667;80;25537;-43
2024/01/28 00:17:17;;;;;;;14.85;5.92;;;;;;;1.88;97.75;101815.83;1820359;78;25580;-43
2024/01/28 00:19:44;;;;;;;21.42;4.83;;;;;;;1.88;97.75;101815.83;1788078;80;25440;-43
2024/01/28 00:22:11;;;;;;;17.17;5.40;;;;;;;1.89;97.69;101820.11;1820413;78;25534;-44
2024/01/28 00:24:37;;;;;;;17.12;4.70;;;;;;;1.89;97.59;101820.11;1788103;80;27879;-43
2024/01/28 00:27:05;;;;;;;17.92;4.95;;;;;;;1.87;97.64;101825.66;1820304;78;25564;-42
2024/01/28 00:29:32;;;;;;;18.70;4.87;;;;;;;1.89;97.63;101838.79;1788034;80;25611;-44
2024/01/28 00:32:00;;;;;;;20.08;5.90;;;;;;;1.89;97.70;101845.46;1820338;78;25468;-43
2024/01/28 00:34:26;;;;;;;24.10;5.47;;;;;;;1.88;97.54;101843.31;1788085;80;25653;-44
2024/01/28 00:36:53;;;;;;;21.68;5.12;;;;;;;1.88;97.54;101863.33;1820365;78;28582;-44
2024/01/28 00:39:20;;;;;;;11.43;5.22;;;;;;;1.86;97.30;101868.88;1787997;80;25601;-43
2024/01/28 00:41:46;;;;;;;18.67;5.87;;;;;;;1.85;97.39;101872.56;1820349;78;25408;-43
2024/01/28 00:44:13;;;;;;;15.55;4.97;;;;;;;1.87;97.51;101875.02;1788010;80;25813;-44
2024/01/28 00:46:40;;;;;;;27.30;8.40;;;;;;;1.88;97.64;101881.20;1820359;78;25534;-46
2024/01/28 00:49:07;;;;;;;67.97;32.67;;;;;;;1.91;97.78;101876.75;1788062;80;28142;-45
2024/01/28 00:51:34;;;;;;;28.85;8.33;;;;;;;1.94;97.87;101887.01;1820219;78;25440;-44
2024/01/28 00:54:00;;;;;;;51.18;24.72;;;;;;;1.95;97.65;101882.80;1788053;80;25592;-43
2024/01/28 00:56:27;;;;;;;22.13;7.87;;;;;;;1.96;97.54;101884.45;1819575;78;25597;-44
2024/01/28 00:58:54;;;;;;;25.23;6.65;;;;;;;1.95;97.32;101880.66;1786113;80;25722;-44
2024/01/28 01:01:20;;;;;;;21.60;6.55;;;;;;;1.93;97.29;101880.86;1819735;78;28301;-43
2024/01/28 01:03:47;;;;;;;21.73;5.78;;;;;;;1.93;97.49;101886.20;1788013;79;25590;-43
2024/01/28 01:06:14;;;;;;;16.60;5.42;;;;;;;1.94;97.58;101889.19;1816855;78;25604;-44
2024/01/28 01:08:41;;;;;;;21.80;6.05;;;;;;;1.93;97.70;101886.20;1810356;79;25567;-45
2024/01/28 01:11:08;;;;;;;19.05;5.75;;;;;;;1.93;97.72;101887.53;1810413;79;25426;-43
2024/01/28 01:13:35;;;;;;;21.62;5.55;;;;;;;1.94;97.72;101893.19;1810308;79;28783;-44
2024/01/28 01:16:03;;;;;;;18.70;6.17;;;;;;;1.93;97.72;101890.73;1810251;79;25865;-44
2024/01/28 01:18:30;;;;;;;23.50;6.25;;;;;;;1.94;97.71;101895.02;1809842;79;25563;-47
2024/01/28 01:20:57;;;;;;;23.30;8.75;;;;;;;1.95;97.78;101898.00;1809812;79;25951;-43
2024/01/28 01:23:23;;;;;;;21.70;5.60;;;;;;;1.93;97.76;101891.53;1809761;79;25411;-43
2024/01/28 01:25:50;;;;;;;24.65;6.92;;;;;;;1.93;97.80;101882.72;1809772;79;28160;-44
2024/01/28 01:28:17;;;;;;;19.62;6.30;;;;;;;1.93;97.71;101887.53;1809633;79;25642;-42
2024/01/28 01:30:44;;;;;;;23.75;7.12;;;;;;;1.93;97.69;101890.73;1809756;79;25475;-42
2024/01/28 01:33:11;;;;;;;16.48;5.78;;;;;;;1.92;97.67;101892.55;1809710;79;25778;-43
2024/01/28 01:35:38;;;;;;;22.95;6.62;;;;;;;1.92;97.59;101895.22;1809735;79;25643;-43
2024/01/28 01:38:05;;;;;;;20.37;6.75;;;;;;;1.90;97.54;101894.63;1809751;79;27853;-42
2024/01/28 01:40:31;;;;;;;21.33;6.55;;;;;;;1.88;97.53;101892.69;1809639;79;25542;-43
2024/01/28 01:42:58;;;;;;;23.32;6.90;;;;;;;1.88;97.60;101893.21;1809666;79;25383;-43
2024/01/28 01:45:25;;;;;;;22.73;7.67;;;;;;;1.86;97.56;101894.23;1809660;79;25459;-42
2024/01/28 01:47:52;;;;;;;21.35;7.33;;;;;;;1.84;97.49;101901.63;1809722;79;25581;-42
2024/01/28 01:50:19;;;;;;;26.20;6.90;;;;;;;1.85;97.44;101904.59;1809720;79;27474;-43
2024/01/28 01:52:46;;;;;;;21.95;7.20;;;;;;;1.82;97.26;101906.36;1809576;79;25840;-43
2024/01/28 01:55:13;;;;;;;24.00;6.53;;;;;;;1.80;97.05;101911.59;1809713;79;25388;-42
2024/01/28 01:57:42;;;;;;;17.55;6.08;;;;;;;1.76;96.73;101915.20;1782536;79;25889;-42
2024/01/28 02:00:14;;;;;;;23.35;6.75;;;;;;;1.71;96.46;101909.67;1809711;79;25460;-42
2024/01/28 02:02:45;;;;;;;19.40;6.90;;;;;;;1.67;96.53;101911.95;1738062;82;27462;-44
2024/01/28 02:05:12;;;;;;;22.62;7.30;;;;;;;1.63;96.49;101913.90;1768394;81;26168;-43
2024/01/28 02:07:39;;;;;;;19.73;6.65;;;;;;;1.59;96.50;101913.50;1768306;79;25494;-43
2024/01/28 02:10:09;;;;;;;28.67;7.05;;;;;;;1.56;96.56;101909.91;1768415;81;25707;-44
2024/01/28 02:12:36;;;;;;;28.42;7.78;;;;;;;1.52;96.68;101917.23;1768492;81;25675;-44
2024/01/28 02:15:06;;;;;;;26.60;8.53;;;;;;;1.48;96.64;101910.12;1768420;79;27415;-44
2024/01/28 02:17:33;;;;;;;;;;;;;;;1.45;96.70;101907.91;1770962;81;25803;-46
2024/01/28 02:20:00;;;;;;;25.17;6.92;;;;;;;1.42;96.92;101912.31;1768447;81;25461;-44
2024/01/28 02:22:26;;;;;;;23.30;8.33;;;;;;;1.39;97.07;101907.39;1768409;81;26035;-43
2024/01/28 02:24:54;;;;;;;20.55;7.92;;;;;;;1.38;97.05;101913.25;1768464;81;25500;-44
2024/01/28 02:27:21;;;;;;;33.65;8.23;;;;;;;1.35;97.22;101914.99;1768398;81;27474;-44
2024/01/28 02:29:48;;;;;;;22.35;7.92;;;;;;;1.33;97.33;101909.05;1768320;81;25477;-45
2024/01/28 02:32:17;;;;;;;19.02;8.25;;;;;;;1.32;97.44;101906.59;1768404;81;25409;-44
2024/01/28 02:34:44;;;;;;;;;;;;;;;1.30;97.47;101908.94;1740752;82;25433;-44
2024/01/28 02:37:12;;;;;;;29.15;7.47;;;;;;;1.29;97.48;101908.66;1768478;81;25400;-44
2024/01/28 02:39:40;;;;;;;21.80;7.55;;;;;;;1.28;97.57;101912.86;1738206;82;27579;-44
2024/01/28 02:42:08;;;;;;;25.08;7.17;;;;;;;1.26;97.68;101918.39;1768637;81;25444;-43
2024/01/28 02:44:35;;;;;;;24.45;7.00;;;;;;;1.27;97.80;101921.87;1768552;81;25615;-42
2024/01/28 02:47:01;;;;;;;21.93;7.62;;;;;;;1.26;97.91;101922.39;1768354;81;25512;-45
2024/01/28 02:49:28;;;;;;;23.22;9.30;;;;;;;1.26;98.03;101925.55;1768443;81;25524;-44
2024/01/28 02:51:55;;;;;;;20.72;8.05;;;;;;;1.26;98.11;101931.72;1768421;81;28538;-44
2024/01/28 02:54:23;;;;;;;21.48;7.20;;;;;;;1.27;98.14;101936.53;1738063;82;25824;-43
2024/01/28 02:56:51;;;;;;;22.77;7.17;;;;;;;1.28;98.23;101944.32;1768688;80;25415;-43
2024/01/28 02:59:18;;;;;;;24.65;7.97;;;;;;;1.27;98.24;101949.34;1768473;81;25566;-45
2024/01/28 03:01:47;;;;;;;27.27;7.97;;;;;;;1.29;98.22;101946.47;1768446;81;25644;-44
2024/01/28 03:04:15;;;;;;;26.25;8.55;;;;;;;1.30;98.31;101962.27;1737760;82;27243;-43
2024/01/28 03:06:42;;;;;;;22.25;7.87;;;;;;;1.32;98.33;101963.91;1766421;80;25839;-47
2024/01/28 03:09:09;;;;;;;29.20;8.08;;;;;;;1.33;98.14;101958.87;1767873;81;25491;-43
2024/01/28 03:11:36;;;;;;;25.92;8.23;;;;;;;1.34;98.05;101964.00;1755643;81;25563;-46
2024/01/28 03:14:03;;;;;;;24.32;7.83;;;;;;;1.35;97.99;101978.98;1759195;81;25546;-47
2024/01/28 03:16:29;;;;;;;25.37;7.78;;;;;;;1.36;97.96;101989.13;1755783;81;27839;-43
2024/01/28 03:18:56;;;;;;;20.12;7.35;;;;;;;1.36;97.97;101989.94;1759115;81;25635;-43
2024/01/28 03:21:22;;;;;;;22.45;7.33;;;;;;;1.38;98.00;101991.06;1755683;81;25445;-43
2024/01/28 03:23:49;;;;;;;27.82;7.78;;;;;;;1.37;97.97;101983.59;1759258;81;25520;-43
2024/01/28 03:26:16;;;;;;;21.90;8.03;;;;;;;1.37;98.00;101988.11;1755670;81;25512;-45
2024/01/28 03:28:43;;;;;;;22.60;7.35;;;;;;;1.37;97.81;101979.59;1759183;81;27970;-43
2024/01/28 03:31:10;;;;;;;28.35;8.55;;;;;;;1.38;98.04;101983.06;1755622;81;25818;-42
2024/01/28 03:33:36;;;;;;;23.98;7.47;;;;;;;1.38;98.12;101985.73;1759172;81;25428;-43
2024/01/28 03:36:04;;;;;;;28.62;8.78;;;;;;;1.36;98.16;101992.60;1755623;81;25418;-45
2024/01/28 03:38:31;;;;;;;22.90;7.75;;;;;;;1.37;98.14;101996.11;1759200;81;25569;-43
2024/01/28 03:40:57;;;;;;;22.20;7.47;;;;;;;1.36;98.21;101996.60;1755624;81;28609;-44
2024/01/28 03:43:24;;;;;;;22.55;7.83;;;;;;;1.37;98.25;101996.11;1759097;81;25401;-43
2024/01/28 03:45:50;;;;;;;23.75;7.67;;;;;;;1.37;98.06;102000.11;1755659;81;25413;-43
2024/01/28 03:48:17;;;;;;;23.65;7.58;;;;;;;1.36;98.13;101997.94;1759134;81;25564;-43
2024/01/28 03:50:44;;;;;;;20.27;7.40;;;;;;;1.36;98.21;101997.94;1755671;81;25536;-43
2024/01/28 03:53:10;;;;;;;22.52;7.08;;;;;;;1.37;98.08;101997.45;1759125;81;27414;-43
2024/01/28 03:55:36;;;;;;;26.97;7.72;;;;;;;1.36;98.26;101997.94;1755579;81;25547;-43
2024/01/28 03:58:04;;;;;;;24.30;7.95;;;;;;;1.38;98.45;101997.73;1759174;81;25539;-43
2024/01/28 04:00:30;;;;;;;26.48;7.97;;;;;;;1.37;98.29;101994.78;1755722;81;25485;-45
2024/01/28 04:02:57;;;;;;;18.57;6.90;;;;;;;1.34;98.20;101997.33;1759197;81;25610;-44
2024/01/28 04:05:24;;;;;;;25.97;7.78;;;;;;;1.33;98.20;101995.70;1755666;81;27493;-43
2024/01/28 04:07:50;;;;;;;23.60;7.62;;;;;;;1.33;98.29;101991.70;1768974;80;26943;-43
2024/01/28 04:10:18;;;;;;;22.82;6.78;;;;;;;1.34;98.40;101995.19;1759152;81;25418;-43
2024/01/28 04:12:46;;;;;;;22.73;8.15;;;;;;;1.33;98.49;101993.04;1776056;80;25467;-44
2024/01/28 04:15:13;;;;;;;24.80;7.25;;;;;;;1.34;98.41;101999.19;1759164;81;25461;-44
2024/01/28 04:17:39;;;;;;;26.90;7.10;;;;;;;1.34;98.51;102007.18;1775980;80;27888;-43
2024/01/28 04:20:08;;;;;;;20.65;6.95;;;;;;;1.34;98.59;102005.84;1759063;81;25372;-43
2024/01/28 04:22:35;;;;;;;25.48;6.75;;;;;;;1.32;98.75;102008.72;1776145;80;25622;-44
2024/01/28 04:25:02;;;;;;;42.40;38.08;;;;;;;1.33;98.91;102004.19;1759123;81;25514;-44
2024/01/28 04:27:29;;;;;;;20.12;7.97;;;;;;;1.34;98.93;102013.84;1775975;80;25606;-45
2024/01/28 04:29:55;;;;;;;22.45;7.78;;;;;;;1.35;99.11;102014.17;1759151;81;28092;-44
2024/01/28 04:32:22;;;;;;;25.45;6.85;;;;;;;1.36;99.25;102017.13;1775891;80;25479;-43
2024/01/28 04:34:48;;;;;;;16.30;6.53;;;;;;;1.37;99.38;102028.92;1759153;81;25528;-43
2024/01/28 04:37:15;;;;;;;22.55;6.42;;;;;;;1.40;99.38;102033.04;1775967;80;25526;-46
2024/01/28 04:39:42;;;;;;;20.57;7.53;;;;;;;1.41;99.36;102030.14;1759178;81;25524;-43
2024/01/28 04:42:09;;;;;;;18.17;7.55;;;;;;;1.43;99.45;102037.45;1776016;80;28151;-43
2024/01/28 04:44:35;;;;;;;24.80;7.22;;;;;;;1.46;99.58;102040.20;1759167;81;25584;-43
2024/01/28 04:47:03;;;;;;;23.50;7.25;;;;;;;1.47;99.69;102037.33;1775969;80;25612;-43
2024/01/28 04:49:29;;;;;;;21.40;6.97;;;;;;;1.48;99.70;102044.81;1759101;81;26192;-44
2024/01/28 04:51:56;;;;;;;22.25;7.20;;;;;;;1.51;99.75;102043.07;1776022;80;25628;-43
2024/01/28 04:54:23;;;;;;;25.68;8.88;;;;;;;1.53;99.82;102050.34;1759298;81;28090;-43
2024/01/28 04:56:50;;;;;;;31.15;7.30;;;;;;;1.55;99.97;102058.15;1776092;80;25530;-43
2024/01/28 04:59:17;;;;;;;22.55;7.65;;;;;;;1.56;100.00;102058.47;1759266;81;25524;-44
2024/01/28 05:01:43;;;;;;;23.35;7.33;;;;;;;1.58;100.00;102066.55;1776085;80;26172;-46
2024/01/28 05:04:10;;;;;;;22.82;6.75;;;;;;;1.61;100.00;102070.67;1759322;81;25456;-46
2024/01/28 05:06:36;;;;;;;17.12;6.67;;;;;;;1.62;100.00;102063.80;1776095;80;27836;-43
2024/01/28 05:09:06;;;;;;;20.05;6.17;;;;;;;1.64;100.00;102069.75;1789484;80;26159;-45
2024/01/28 05:11:32;;;;;;;;;;;;;;;1.66;100.00;102075.69;1793142;80;25432;-43
2024/01/28 05:13:59;;;;;;;14.65;5.90;;;;;;;1.70;100.00;102087.29;1760885;80;25869;-42
2024/01/28 05:16:27;;;;;;;16.27;5.60;;;;;;;1.70;100.00;102084.10;1760904;81;25467;-43
2024/01/28 05:18:54;;;;;;;20.68;5.70;;;;;;;1.72;100.00;102092.75;1760866;81;27502;-43
2024/01/28 05:21:22;;;;;;;16.70;6.60;;;;;;;1.75;100.00;102092.83;1760806;81;26204;-43
2024/01/28 05:23:55;;;;;;;19.20;5.78;;;;;;;1.77;100.00;102090.28;1760871;81;25464;-43
2024/01/28 05:26:18;;;;;;;20.17;6.03;;;;;;;1.79;100.00;102092.23;1759347;81;34729;-43
2024/01/28 05:28:45;;;;;;;16.87;6.10;;;;;;;1.82;100.00;102083.81;1760911;81;25574;-44
2024/01/28 05:31:12;;;;;;;17.02;6.28;;;;;;;1.85;100.00;102083.89;1760873;81;27870;-45
2024/01/28 05:33:40;;;;;;;20.88;6.87;;;;;;;1.87;100.00;102089.84;1760766;81;25813;-45
2024/01/28 05:36:14;;;;;;;14.28;5.03;;;;;;;1.90;100.00;102094.77;1760870;81;25461;-43
2024/01/28 05:38:41;;;;;;;17.57;5.62;;;;;;;1.92;100.00;102091.90;1760839;81;25501;-45
2024/01/28 05:41:09;;;;;;;17.85;5.47;;;;;;;1.94;100.00;102088.02;1760875;81;25468;-44
2024/01/28 05:43:36;;;;;;;17.00;5.25;;;;;;;1.96;100.00;102089.11;1760871;81;27488;-43
2024/01/28 05:46:04;;;;;;;13.58;5.35;;;;;;;1.98;100.00;102091.08;1760783;81;25601;-43
2024/01/28 05:48:32;;;;;;;14.90;6.15;;;;;;;2.00;100.00;102093.84;1760868;81;25471;-42
2024/01/28 05:50:59;;;;;;;15.40;5.40;;;;;;;2.02;100.00;102095.78;1760993;81;25654;-44
2024/01/28 05:53:26;;;;;;;18.40;5.90;;;;;;;2.04;100.00;102104.42;1760910;81;25432;-43
2024/01/28 05:55:53;;;;;;;17.67;6.47;;;;;;;2.07;100.00;102110.38;1760909;81;27508;-43
2024/01/28 05:58:23;;;;;;;19.30;6.08;;;;;;;2.09;100.00;102106.97;1760789;81;25610;-43
2024/01/28 06:00:50;;;;;;;18.95;5.85;;;;;;;2.11;100.00;102120.93;1760871;81;25622;-43
2024/01/28 06:03:17;;;;;;;13.20;5.10;;;;;;;2.12;100.00;102126.59;1760850;81;25496;-43
2024/01/28 06:05:44;;;;;;;17.27;6.00;;;;;;;2.13;100.00;102122.38;1760916;81;25584;-47
2024/01/28 06:08:10;;;;;;;14.90;6.00;;;;;;;2.14;100.00;102126.67;1768193;80;27357;-47
2024/01/28 06:10:37;;;;;;;11.95;5.28;;;;;;;2.17;100.00;102128.13;1782885;80;26013;-45
2024/01/28 06:13:04;;;;;;;19.15;6.30;;;;;;;2.18;100.00;102133.75;1784642;80;25398;-44
2024/01/28 06:15:31;;;;;;;14.28;6.50;;;;;;;2.19;100.00;102133.55;1782945;80;26149;-44
2024/01/28 06:17:58;;;;;;;14.65;6.72;;;;;;;2.21;100.00;102134.67;1781319;80;25602;-46
2024/01/28 06:20:25;;;;;;;19.00;6.87;;;;;;;2.21;100.00;102130.17;1782963;80;28587;-42
2024/01/28 06:22:52;;;;;;;19.92;8.05;;;;;;;2.24;100.00;102140.94;1757974;80;25498;-44
2024/01/28 06:25:19;;;;;;;15.55;6.53;;;;;;;2.24;100.00;102130.26;1782975;80;25430;-45
2024/01/28 06:27:45;;;;;;;16.27;6.40;;;;;;;2.27;100.00;102131.71;1781227;80;25864;-45
2024/01/28 06:30:14;;;;;;;20.65;6.40;;;;;;;2.27;100.00;102138.39;1783050;80;25421;-44
2024/01/28 06:32:40;;;;;;;16.90;6.70;;;;;;;2.29;100.00;102142.47;1784619;80;28054;-44
2024/01/28 06:35:08;;;;;;;16.50;6.17;;;;;;;2.31;100.00;102146.27;1782841;80;26223;-45
2024/01/28 06:37:36;;;;;;;11.22;6.60;;;;;;;2.32;100.00;102154.08;1784623;80;25413;-43
2024/01/28 06:40:05;;;;;;;16.48;6.80;;;;;;;2.33;100.00;102153.03;1782878;80;27648;-43
2024/01/28 06:42:32;;;;;;;11.90;6.72;;;;;;;2.35;100.00;102148.82;1784625;80;25408;-44
2024/01/28 06:45:02;;;;;;;18.30;6.70;;;;;;;2.35;100.00;102152.34;1782949;80;27577;-43
2024/01/28 06:47:28;;;;;;;21.93;8.88;;;;;;;2.36;100.00;102153.95;1781135;80;25523;-44
2024/01/28 06:49:55;;;;;;;14.18;6.53;;;;;;;2.39;100.00;102152.73;1782940;80;25613;-46
2024/01/28 06:52:21;;;;;;;13.83;6.60;;;;;;;2.41;100.00;102148.81;1781251;80;25938;-46
2024/01/28 06:54:48;;;;;;;16.05;7.45;;;;;;;2.42;100.00;102157.67;1782996;80;25464;-47
2024/01/28 06:57:15;;;;;;;16.75;8.15;;;;;;;2.45;100.00;102152.41;1781275;80;27016;-45
2024/01/28 06:59:44;;;;;;;15.63;7.95;;;;;;;2.46;100.00;102152.73;1782823;80;25504;-46
2024/01/28 07:02:11;;;;;;;16.82;8.28;;;;;;;2.47;100.00;102157.86;1784766;80;28121;-46
2024/01/28 07:04:39;;;;;;;16.45;7.72;;;;;;;2.48;100.00;102155.48;1782924;80;25634;-44
2024/01/28 07:07:05;;;;;;;16.23;8.20;;;;;;;2.49;100.00;102158.98;1781285;80;25404;-45
2024/01/28 07:09:32;;;;;;;19.20;8.00;;;;;;;2.51;100.00;102151.05;1763943;80;27401;-44
2024/01/28 07:11:59;;;;;;;18.00;7.65;;;;;;;2.53;100.00;102169.55;1781727;80;25613;-45
2024/01/28 07:14:25;;;;;;;19.52;8.55;;;;;;;2.54;100.00;102160.52;1781835;80;25542;-42
2024/01/28 07:16:52;;;;;;;15.45;8.30;;;;;;;2.55;100.00;102161.62;1781799;80;25480;-43
2024/01/28 07:19:18;;;;;;;16.15;9.28;;;;;;;2.58;100.00;102170.55;1781868;80;25408;-44
2024/01/28 07:21:45;;;;;;;17.32;8.38;;;;;;;2.60;100.00;102173.84;1781822;80;27810;-42
2024/01/28 07:24:12;;;;;;;18.55;8.80;;;;;;;2.60;100.00;102175.17;1781732;80;25384;-42
2024/01/28 07:26:39;;;;;;;17.50;8.80;;;;;;;2.63;100.00;102177.95;1781829;80;25416;-48
2024/01/28 07:29:05;;;;;;;17.60;8.98;;;;;;;2.65;100.00;102182.56;1781776;80;25617;-43
2024/01/28 07:31:32;;;;;;;19.10;9.00;;;;;;;2.67;100.00;102175.68;1781838;80;25502;-48
2024/01/28 07:33:59;;;;;;;18.25;9.83;;;;;;;2.70;100.00;102172.59;1781832;80;27431;-47
2024/01/28 07:36:25;;;;;;;15.80;9.50;;;;;;;2.73;100.00;102174.85;1781754;80;25532;-42
2024/01/28 07:38:52;;;;;;;19.30;10.00;;;;;;;2.77;100.00;102176.06;1781826;80;25561;-44
2024/01/28 07:41:18;;;;;;;18.67;10.45;;;;;;;2.79;100.00;102170.83;1781798;80;25837;-43
2024/01/28 07:43:45;;;;;;;20.68;10.10;;;;;;;2.82;100.00;102176.25;1781842;80;25363;-46
2024/01/28 07:46:12;;;;;;;21.75;10.68;;;;;;;2.85;100.00;102173.16;1781830;79;27379;-46
2024/01/28 07:48:39;;;;;;;22.42;11.50;;;;;;;2.89;100.00;102170.88;1759053;81;25503;-43
2024/01/28 07:51:06;;;;;;;17.27;9.50;;;;;;;2.92;100.00;102173.95;1776047;80;25396;-43
2024/01/28 07:53:32;;;;;;;17.07;10.35;;;;;;;2.98;100.00;102176.31;1759108;81;25569;-44
2024/01/28 07:56:00;;;;;;;21.75;10.90;;;;;;;3.07;100.00;102176.37;1776048;80;25587;-42
2024/01/28 07:58:27;;;;;;;16.45;9.38;;;;;;;3.16;100.00;102179.09;1759136;81;27413;-43
2024/01/28 08:00:54;;;;;;;20.55;11.00;;;;;;;3.25;100.00;102177.52;1775918;80;25511;-45
2024/01/28 08:03:21;;;;;;;18.12;10.70;;;;;;;3.29;100.00;102176.88;1759142;81;25564;-43
2024/01/28 08:05:48;;;;;;;17.95;10.08;;;;;;;3.34;100.00;102187.76;1776053;80;25578;-43
2024/01/28 08:08:15;;;;;;;20.43;11.25;;;;;;;3.41;100.00;102190.92;1765630;80;25628;-45
2024/01/28 08:10:41;;;;;;;18.27;11.20;;;;;;;3.46;100.00;102193.25;1819604;78;27864;-43
2024/01/28 08:13:08;;;;;;;17.70;10.30;;;;;;;3.54;100.00;102191.66;1787266;80;25540;-43
2024/01/28 08:15:34;;;;;;;18.27;10.53;;;;;;;3.60;100.00;102197.19;1776316;80;25471;-43
2024/01/28 08:18:01;;;;;;;17.85;10.40;;;;;;;3.68;100.00;102188.91;1787287;80;25903;-42
2024/01/28 08:20:28;;;;;;;15.43;8.00;;;;;;;3.80;100.00;102205.91;1819618;78;25393;-42
2024/01/28 08:22:54;;;;;;;15.80;8.30;;;;;;;3.96;100.00;102203.21;1787369;80;27583;-43
2024/01/28 08:25:21;;;;;;;14.25;8.73;;;;;;;4.09;100.00;102204.98;1819551;78;25519;-43
2024/01/28 08:27:47;;;;;;;18.27;9.83;;;;;;;4.21;100.00;102199.20;1787452;80;25626;-43
2024/01/28 08:30:15;;;;;;;22.80;8.53;;;;;;;4.44;100.00;102207.13;1819733;78;25389;-44
2024/01/28 08:32:41;;;;;;;15.80;8.70;;;;;;;4.91;100.00;102211.50;1787546;80;25467;-44
2024/01/28 08:35:08;;;;;;;23.27;9.70;;;;;;;5.78;100.00;102225.13;1819850;78;27817;-43
2024/01/28 08:37:35;;;;;;;22.17;10.93;;;;;;;6.34;100.00;102214.98;1787396;80;25622;-44
2024/01/28 08:40:07;;;;;;;15.35;8.83;;;;;;;6.95;100.00;102219.55;1819762;78;25538;-43
2024/01/28 08:42:31;;;;;;;12.07;8.88;;;;;;;7.36;100.00;102214.17;1787149;80;25579;-43
2024/01/28 08:44:58;;;;;;;18.32;7.47;;;;;;;7.59;100.00;102218.08;1819882;78;25433;-43
2024/01/28 08:47:25;;;;;;;14.03;7.30;;;;;;;7.97;100.00;102220.64;1787436;80;27845;-43
2024/01/28 08:49:51;;;;;;;8.78;6.33;;;;;;;8.17;100.00;102226.91;1819653;78;25731;-47
2024/01/28 08:52:20;;;;;;;9.40;5.70;;;;;;;8.39;100.00;102224.28;1787501;79;25409;-43
2024/01/28 08:54:47;;;;;;;11.50;5.70;;;;;;;8.34;100.00;102220.67;1819994;78;25882;-44
2024/01/28 08:57:14;;;;;;;9.35;5.72;;;;;;;8.33;100.00;102232.00;1787501;80;25582;-43
2024/01/28 08:59:41;;;;;;;10.00;5.75;;;;;;;8.27;99.08;102237.55;1819775;78;27467;-43
2024/01/28 09:02:08;;;;;;;9.78;5.55;;;;;;;8.18;97.83;102242.54;1787400;80;25606;-42
2024/01/28 09:04:34;;;;;;;9.73;5.80;;;;;;;8.11;97.20;102240.55;1819774;78;25164;-42
2024/01/28 09:07:01;;;;;;;9.78;4.83;;;;;;;8.01;96.63;102243.34;1787485;80;25851;-45
2024/01/28 09:09:28;;;;;;;8.63;4.87;;;;;;;7.85;95.58;102244.16;1813699;78;25445;-44
2024/01/28 09:11:55;;;;;;;7.72;4.03;;;;;;;7.66;94.73;102247.05;1809736;79;27427;-44
2024/01/28 09:14:22;;;;;;;7.95;4.10;;;;;;;7.46;93.89;102244.79;1809653;79;25533;-44
2024/01/28 09:16:49;;;;;;;10.72;5.10;;;;;;;7.25;93.75;102249.47;1809790;79;25451;-43
2024/01/28 09:19:15;;;;;;;7.65;3.87;;;;;;;7.11;94.25;102250.27;1809711;79;25522;-43
2024/01/28 09:21:42;;;;;;;7.08;4.00;;;;;;;7.03;94.77;102250.63;1809731;79;25464;-42
2024/01/28 09:24:08;;;;;;;8.40;4.70;;;;;;;6.95;95.17;102244.27;1809725;79;27787;-45
2024/01/28 09:26:35;;;;;;;9.95;4.83;;;;;;;6.91;95.45;102247.96;1738216;81;25628;-44
2024/01/28 09:29:02;;;;;;;10.32;5.25;;;;;;;6.91;95.94;102242.58;1768460;81;25534;-43
2024/01/28 09:31:29;;;;;;;8.38;4.58;;;;;;;6.99;97.17;102244.91;1768453;81;25536;-43
2024/01/28 09:33:56;;;;;;;6.75;3.65;;;;;;;7.05;97.04;102243.17;1768443;81;25569;-43
2024/01/28 09:36:23;;;;;;;6.40;3.75;;;;;;;7.10;96.73;102247.31;1768437;81;27514;-43
2024/01/28 09:38:50;;;;;;;10.00;3.40;;;;;;;7.06;95.62;102246.13;1768376;81;25777;-46
2024/01/28 09:41:34;;;;;;;7.50;4.28;;;;;;;7.02;95.78;102252.52;1768472;81;25641;-43
2024/01/28 09:44:00;;;;;;;7.78;3.65;;;;;;;6.98;95.24;102250.53;1767587;81;25877;-45
2024/01/28 09:46:27;;;;;;;6.53;3.70;;;;;;;6.84;93.97;102252.66;1768460;81;25806;-44
2024/01/28 09:48:53;;;;;;;8.08;4.20;;;;;;;6.70;93.79;102260.16;1768419;81;28445;-46
2024/01/28 09:51:22;;;;;;;7.50;3.40;;;;;;;6.65;94.43;102256.81;1768380;81;25873;-42
2024/01/28 09:53:48;;;;;;;5.40;3.33;;;;;;;6.67;95.09;102260.63;1768447;81;25617;-45
2024/01/28 09:56:16;;;;;;;7.45;3.62;;;;;;;6.66;95.00;102261.69;1768435;81;26564;-45
2024/01/28 09:58:44;;;;;;;5.83;3.85;;;;;;;6.64;95.21;102265.95;1768478;81;25631;-43
2024/01/28 10:01:11;;;;;;;6.35;3.75;;;;;;;6.64;95.28;102269.15;1768734;81;27585;-43
2024/01/28 10:03:38;;;;;;;6.12;3.08;;;;;;;6.63;94.97;102264.84;1768368;81;25611;-43
2024/01/28 10:06:06;;;;;;;7.78;3.45;;;;;;;6.65;95.21;102261.39;1768469;81;25415;-43
2024/01/28 10:08:32;;;;;;;6.50;2.85;;;;;;;6.67;95.03;102255.24;1768970;79;25661;-44
2024/01/28 10:11:03;;;;;;;7.30;3.58;;;;;;;6.74;95.45;102266.69;1781939;80;25550;-43
2024/01/28 10:13:30;;;;;;;74.87;69.80;;;;;;;6.99;97.77;102257.02;1781891;80;28115;-43
2024/01/28 10:15:57;;;;;;;78.02;72.80;;;;;;;7.14;97.86;102264.61;1781768;80;25859;-43
2024/01/28 10:18:26;;;;;;;78.40;73.07;;;;;;;7.38;98.25;102263.20;1781851;80;25406;-44
2024/01/28 10:20:52;;;;;;;76.12;71.00;;;;;;;7.54;96.28;102257.58;1781852;80;26209;-45
2024/01/28 10:23:19;;;;;;;77.67;72.27;;;;;;;7.67;95.12;102260.79;1759331;81;25402;-43
2024/01/28 10:25:46;;;;;;;83.70;77.50;;;;;;;7.80;95.03;102262.39;1776207;80;28596;-43
2024/01/28 10:28:13;;;;;;;83.25;77.17;;;;;;;7.94;94.97;102256.70;1759113;81;25559;-44
2024/01/28 10:30:40;;;;;;;78.33;73.07;;;;;;;8.11;95.67;102254.83;1776083;80;25417;-43
2024/01/28 10:33:08;;;;;;;79.15;73.70;;;;;;;8.21;92.10;102259.04;1759158;81;26069;-44
2024/01/28 10:35:35;;;;;;;7.80;3.42;;;;;;;8.21;92.10;102259.04;1776082;80;25453;-43
2024/01/28 10:38:04;;;;;;;7.20;2.83;;;;;;;8.15;90.07;102273.48;1759219;81;27471;-43
2024/01/28 10:40:36;;;;;;;6.72;3.08;;;;;;;7.96;89.11;102271.55;1776097;80;32153;-43
2024/01/28 10:43:06;;;;;;;6.17;2.70;;;;;;;7.80;88.64;102268.31;1759248;81;25558;-43
2024/01/28 10:45:36;;;;;;;4.65;2.80;;;;;;;7.66;88.34;102277.19;1775739;80;25559;-42
2024/01/28 10:48:10;;;;;;;6.90;3.17;;;;;;;7.50;88.08;102276.09;1759168;81;25586;-45
2024/01/28 10:50:39;;;;;;;6.78;3.60;;;;;;;7.36;88.31;102272.05;1775975;80;27462;-45
2024/01/28 10:53:10;;;;;;;5.12;3.12;;;;;;;7.24;88.25;102284.19;1759233;81;25395;-44
2024/01/28 10:55:39;;;;;;;5.25;3.30;;;;;;;7.09;88.61;102289.53;1776019;80;25593;-44
2024/01/28 10:58:05;;;;;;;;;;;;;;;6.99;88.56;102289.84;1761777;81;25467;-44
2024/01/28 11:00:34;;;;;;;4.45;2.95;;;;;;;6.88;88.26;102298.23;1776081;80;25547;-43
2024/01/28 11:03:07;;;;;;;5.60;2.98;;;;;;;6.75;88.55;102293.08;1759317;81;28120;-44
2024/01/28 11:05:36;;;;;;;90.03;61.23;;;;;;;6.63;88.42;102284.47;1775966;80;25533;-43
2024/01/28 11:08:05;;;;;;;78.02;69.62;;;;;;;6.53;88.86;102295.80;1759182;81;25458;-43
2024/01/28 11:10:34;;;;;;;11.28;6.47;;;;;;;6.49;88.96;102295.98;1800104;79;26215;-45
2024/01/28 11:13:05;;;;;;;8.60;3.90;;;;;;;6.42;89.17;102294.44;1809120;79;25618;-42
2024/01/28 11:15:34;;;;;;;7.80;4.10;;;;;;;6.36;89.20;102301.57;1809057;79;27834;-43
2024/01/28 11:18:06;;;;;;;9.50;4.72;;;;;;;6.29;89.37;102293.61;1787345;80;25964;-43
2024/01/28 11:20:34;;;;;;;12.23;4.78;;;;;;;6.24;89.49;102300.20;1819617;78;25629;-42
2024/01/28 11:23:02;;;;;;;7.50;5.20;;;;;;;6.16;89.74;102297.34;1787304;80;25873;-44
2024/01/28 11:25:33;;;;;;;13.48;5.72;;;;;;;6.14;90.13;102303.98;1819610;78;25541;-42
2024/01/28 11:28:07;;;;;;;11.90;5.42;;;;;;;6.12;90.46;102301.52;1787359;80;27454;-43
2024/01/28 11:30:37;;;;;;;10.43;5.53;;;;;;;6.09;90.67;102303.84;1819537;78;25726;-44